createdAt,value
2023-02-09T00:00:18.879Z,9.52
2023-02-09T00:02:46.325Z,9.55
2023-02-09T00:05:13.419Z,8.85
2023-02-09T00:07:40.543Z,9.68
2023-02-09T00:10:08.251Z,9.15
2023-02-09T00:12:55.661Z,8.48
2023-02-09T00:15:23.073Z,8.57
2023-02-09T00:17:50.182Z,8.27
2023-02-09T00:20:17.543Z,8.63
2023-02-09T00:22:44.957Z,8.02
2023-02-09T00:25:12.035Z,9.00
2023-02-09T00:27:39.126Z,10.02
2023-02-09T00:30:07.008Z,9.18
2023-02-09T00:32:34.152Z,10.63
2023-02-09T00:35:01.253Z,9.20
2023-02-09T00:37:28.692Z,8.98
2023-02-09T00:39:55.799Z,8.73
2023-02-09T00:42:22.846Z,8.75
2023-02-09T00:44:50.325Z,8.85
2023-02-09T00:47:17.398Z,8.70
2023-02-09T00:49:44.487Z,8.60
2023-02-09T00:52:11.905Z,7.72
2023-02-09T00:54:39.109Z,9.57
2023-02-09T00:57:06.342Z,8.90
2023-02-09T00:59:35.157Z,9.38
2023-02-09T01:02:03.338Z,9.05
2023-02-09T01:04:30.526Z,8.20
2023-02-09T01:06:58.105Z,8.57
2023-02-09T01:09:25.500Z,9.50
2023-02-09T01:11:52.594Z,10.02
2023-02-09T01:14:20.027Z,11.23
2023-02-09T01:16:47.125Z,9.45
2023-02-09T01:19:14.334Z,10.35
2023-02-09T01:21:42.598Z,10.82
2023-02-09T01:24:13.508Z,8.35
2023-02-09T01:26:41.004Z,8.13
2023-02-09T01:29:10.335Z,9.57
2023-02-09T01:31:38.233Z,10.00
2023-02-09T01:34:05.517Z,9.10
2023-02-09T01:36:33.577Z,8.90
2023-02-09T01:39:01.896Z,8.73
2023-02-09T01:41:29.320Z,10.07
2023-02-09T01:44:00.554Z,9.43
2023-02-09T01:46:33.529Z,9.15
2023-02-09T01:51:36.785Z,8.20
2023-02-09T01:54:08.028Z,8.68
2023-02-09T01:56:35.979Z,9.43
2023-02-09T01:59:03.477Z,7.78
2023-02-09T02:01:30.871Z,8.50
2023-02-09T02:03:58.399Z,9.00
2023-02-09T02:06:25.715Z,9.23
2023-02-09T02:08:57.384Z,8.20
2023-02-09T02:11:27.696Z,7.93
2023-02-09T02:13:54.721Z,9.35
2023-02-09T02:16:24.885Z,8.23
2023-02-09T02:18:54.831Z,8.15
2023-02-09T02:21:49.248Z,8.05
2023-02-09T02:24:39.538Z,7.72
2023-02-09T02:27:35.842Z,8.82
2023-02-09T02:30:18.225Z,8.15
2023-02-09T02:33:04.463Z,7.35
2023-02-09T02:35:38.027Z,8.45
2023-02-09T02:38:14.324Z,8.00
2023-02-09T02:41:05.574Z,7.87
2023-02-09T02:44:02.740Z,8.35
2023-02-09T02:46:35.982Z,8.45
2023-02-09T02:49:27.851Z,6.75
2023-02-09T02:51:57.019Z,9.45
2023-02-09T02:54:28.456Z,9.23
2023-02-09T02:57:03.419Z,9.75
2023-02-09T02:59:39.021Z,9.27
2023-02-09T03:02:12.150Z,9.18
2023-02-09T03:04:40.238Z,9.07
2023-02-09T03:07:07.895Z,8.95
2023-02-09T03:09:34.983Z,8.88
2023-02-09T03:12:16.701Z,8.63
2023-02-09T03:15:08.275Z,8.77
2023-02-09T03:17:41.435Z,8.05
2023-02-09T03:20:13.171Z,8.15
2023-02-09T03:22:43.170Z,8.30
2023-02-09T03:25:40.715Z,8.63
2023-02-09T03:28:17.804Z,7.68
2023-02-09T03:30:46.673Z,7.47
2023-02-09T03:33:26.324Z,7.82
2023-02-09T03:35:59.380Z,8.23
2023-02-09T03:38:27.517Z,8.38
2023-02-09T03:40:55.201Z,7.40
2023-02-09T03:43:42.216Z,7.25
2023-02-09T03:46:12.949Z,7.40
2023-02-09T03:48:40.046Z,6.70
2023-02-09T03:51:07.184Z,7.00
2023-02-09T03:53:36.600Z,7.97
2023-02-09T03:56:04.926Z,7.30
2023-02-09T03:58:32.310Z,6.80
2023-02-09T04:01:05.440Z,7.20
2023-02-09T04:03:33.733Z,8.17
2023-02-09T04:06:01.394Z,7.45
2023-02-09T04:08:30.301Z,7.10
2023-02-09T04:10:57.843Z,7.22
2023-02-09T04:13:25.847Z,8.75
2023-02-09T04:15:53.128Z,7.55
2023-02-09T04:18:20.758Z,8.27
2023-02-09T04:20:48.103Z,7.60
2023-02-09T04:23:16.792Z,8.65
2023-02-09T04:25:44.264Z,8.75
2023-02-09T04:28:11.961Z,8.52
2023-02-09T04:30:39.221Z,8.00
2023-02-09T04:33:06.584Z,8.30
2023-02-09T04:35:33.681Z,7.57
2023-02-09T04:38:00.750Z,7.68
2023-02-09T04:40:28.155Z,9.23
2023-02-09T04:42:55.393Z,8.57
2023-02-09T04:45:22.450Z,7.62
2023-02-09T04:47:49.858Z,8.57
2023-02-09T04:50:17.470Z,8.15
2023-02-09T04:52:44.550Z,9.48
2023-02-09T04:55:12.198Z,7.72
2023-02-09T04:57:57.876Z,8.27
2023-02-09T05:00:25.309Z,8.35
2023-02-09T05:02:52.432Z,7.87
2023-02-09T05:05:19.740Z,9.23
2023-02-09T05:07:47.211Z,8.18
2023-02-09T05:10:14.277Z,8.05
2023-02-09T05:12:41.386Z,7.90
2023-02-09T05:15:09.254Z,9.35
2023-02-09T05:17:36.379Z,8.18
2023-02-09T05:20:04.225Z,9.50
2023-02-09T05:22:31.689Z,10.02
2023-02-09T05:24:58.771Z,8.50
2023-02-09T05:27:25.976Z,7.90
2023-02-09T05:29:53.506Z,8.68
2023-02-09T05:32:20.726Z,8.52
2023-02-09T05:34:47.791Z,8.57
2023-02-09T05:37:15.268Z,8.93
2023-02-09T05:39:42.452Z,8.93
2023-02-09T05:42:15.808Z,9.55
2023-02-09T05:44:48.175Z,8.50
2023-02-09T05:47:17.897Z,7.75
2023-02-09T05:49:45.915Z,8.65
2023-02-09T05:52:13.660Z,8.98
2023-02-09T05:54:40.787Z,7.85
2023-02-09T05:57:08.720Z,7.05
2023-02-09T05:59:35.816Z,7.93
2023-02-09T06:02:02.993Z,8.00
2023-02-09T06:04:30.584Z,6.97
2023-02-09T06:06:57.917Z,8.32
2023-02-09T06:09:25.303Z,7.40
2023-02-09T06:11:52.746Z,9.30
2023-02-09T06:14:20.505Z,8.35
2023-02-09T06:16:48.119Z,8.15
2023-02-09T06:19:18.097Z,8.50
2023-02-09T06:21:45.432Z,8.65
2023-02-09T06:24:13.207Z,9.50
2023-02-09T06:26:41.610Z,9.57
2023-02-09T06:29:09.324Z,9.73
2023-02-09T06:31:37.213Z,9.57
2023-02-09T06:34:05.892Z,10.38
2023-02-09T06:36:33.302Z,10.40
2023-02-09T06:39:01.071Z,9.45
2023-02-09T06:41:28.603Z,10.23
2023-02-09T06:43:55.714Z,8.15
2023-02-09T06:46:23.071Z,10.88
2023-02-09T06:48:51.186Z,9.73
2023-02-09T06:51:18.893Z,11.00
2023-02-09T06:53:46.389Z,10.95
2023-02-09T06:56:14.623Z,9.88
2023-02-09T06:58:42.039Z,12.10
2023-02-09T07:01:12.398Z,11.63
2023-02-09T07:03:39.816Z,8.80
2023-02-09T07:06:12.408Z,9.25
2023-02-09T07:08:40.957Z,9.02
2023-02-09T07:11:10.855Z,7.60
2023-02-09T07:13:38.569Z,10.65
2023-02-09T07:16:07.926Z,8.27
2023-02-09T07:18:35.399Z,9.57
2023-02-09T07:21:19.998Z,8.73
2023-02-09T07:23:49.018Z,7.85
2023-02-09T07:26:17.306Z,10.23
2023-02-09T07:28:44.980Z,9.23
2023-02-09T07:31:14.929Z,9.38
2023-02-09T07:33:42.629Z,9.35
2023-02-09T07:36:11.867Z,9.90
2023-02-09T07:38:39.829Z,9.50
2023-02-09T07:41:08.372Z,8.48
2023-02-09T07:43:35.483Z,9.68
2023-02-09T07:46:05.126Z,9.50
2023-02-09T07:48:32.867Z,9.45
2023-02-09T07:51:00.271Z,9.27
2023-02-09T07:53:28.497Z,8.25
2023-02-09T07:55:55.869Z,9.75
2023-02-09T07:58:23.330Z,8.95
2023-02-09T08:00:51.431Z,10.65
2023-02-09T08:03:21.408Z,9.25
2023-02-09T08:06:30.340Z,10.02
2023-02-09T08:09:05.279Z,9.10
2023-02-09T08:11:44.765Z,9.18
2023-02-09T08:14:39.679Z,8.32
2023-02-09T08:17:28.001Z,9.68
2023-02-09T08:20:05.955Z,10.18
2023-02-09T08:22:35.501Z,9.43
2023-02-09T08:25:03.713Z,11.00
2023-02-09T08:27:30.997Z,10.82
2023-02-09T08:29:58.827Z,10.40
2023-02-09T08:32:26.218Z,12.13
2023-02-09T08:34:53.277Z,10.70
2023-02-09T08:37:20.303Z,10.20
2023-02-09T08:39:47.623Z,9.80
2023-02-09T08:42:14.646Z,9.90
2023-02-09T08:44:41.826Z,10.80
2023-02-09T08:47:09.147Z,10.10
2023-02-09T08:49:36.512Z,10.90
2023-02-09T08:52:03.846Z,11.60
2023-02-09T08:54:31.261Z,9.90
2023-02-09T08:56:58.332Z,11.10
2023-02-09T09:01:53.514Z,9.65
2023-02-09T09:04:23.446Z,10.77
2023-02-09T09:06:50.673Z,11.23
2023-02-09T09:09:18.182Z,10.20
2023-02-09T09:11:45.164Z,11.73
2023-02-09T09:14:12.290Z,12.10
2023-02-09T09:16:39.741Z,10.38
2023-02-09T09:19:06.807Z,12.10
2023-02-09T09:21:33.903Z,10.02
2023-02-09T09:24:03.882Z,11.00
2023-02-09T09:26:30.930Z,11.65
2023-02-09T09:28:58.118Z,12.50
2023-02-09T09:31:25.623Z,11.00
2023-02-09T09:33:52.714Z,11.45
2023-02-09T09:36:20.713Z,9.02
2023-02-09T09:38:48.137Z,11.07
2023-02-09T09:41:25.824Z,10.68
2023-02-09T09:43:54.145Z,12.40
2023-02-09T09:46:26.847Z,9.73
2023-02-09T09:48:56.142Z,12.07
2023-02-09T09:51:41.088Z,12.85
2023-02-09T09:54:20.723Z,12.15
2023-02-09T09:56:48.770Z,9.98
2023-02-09T09:59:26.533Z,9.18
2023-02-09T10:01:55.594Z,9.23
2023-02-09T10:04:23.074Z,11.57
2023-02-09T10:06:58.238Z,11.45
2023-02-09T10:09:48.762Z,11.23
2023-02-09T10:12:30.819Z,10.93
2023-02-09T10:14:59.195Z,10.75
2023-02-09T10:17:26.489Z,10.93
2023-02-09T10:20:01.902Z,9.18
2023-02-09T10:22:29.387Z,10.43
2023-02-09T10:24:57.826Z,10.20
2023-02-09T10:27:31.100Z,9.55
2023-02-09T10:30:28.051Z,10.63
2023-02-09T10:32:59.278Z,10.75
2023-02-09T10:35:41.412Z,11.02
2023-02-09T10:38:15.343Z,11.30
2023-02-09T10:43:26.079Z,10.63
2023-02-09T10:45:56.445Z,11.00
2023-02-09T10:48:26.822Z,11.50
2023-02-09T10:50:59.492Z,11.80
2023-02-09T10:53:33.002Z,12.27
2023-02-09T10:56:07.331Z,10.52
2023-02-09T10:58:37.281Z,10.95
2023-02-09T11:01:11.726Z,10.50
2023-02-09T11:06:17.535Z,11.70
2023-02-09T11:08:47.787Z,11.20
2023-02-09T11:11:33.507Z,11.35
2023-02-09T11:14:00.924Z,8.75
2023-02-09T11:16:47.580Z,8.07
2023-02-09T11:19:22.624Z,12.00
2023-02-09T11:22:12.244Z,11.65
2023-02-09T11:24:59.450Z,12.40
2023-02-09T11:27:53.211Z,9.38
2023-02-09T11:30:39.272Z,8.27
2023-02-09T11:33:34.812Z,10.30
2023-02-09T11:36:38.639Z,10.50
2023-02-09T11:39:14.733Z,10.75
2023-02-09T11:42:22.210Z,10.68
2023-02-09T11:45:09.951Z,10.43
2023-02-09T11:47:56.839Z,10.82
2023-02-09T11:50:31.408Z,9.93
2023-02-09T11:55:42.045Z,8.65
2023-02-09T11:58:42.777Z,9.70
2023-02-09T12:01:26.319Z,9.43
2023-02-09T12:04:04.752Z,8.80
2023-02-09T12:06:41.696Z,8.43
2023-02-09T12:09:15.995Z,9.60
2023-02-09T12:11:49.481Z,9.80
2023-02-09T12:14:39.040Z,8.20
2023-02-09T12:17:13.969Z,8.60
2023-02-09T12:19:45.658Z,7.90
2023-02-09T12:22:34.639Z,7.60
2023-02-09T12:25:19.148Z,8.32
2023-02-09T12:28:04.622Z,7.72
2023-02-09T12:30:40.806Z,7.18
2023-02-09T12:33:23.605Z,8.27
2023-02-09T12:36:33.545Z,8.02
2023-02-09T12:39:25.147Z,8.40
2023-02-09T12:41:55.152Z,9.63
2023-02-09T12:44:22.282Z,9.18
2023-02-09T12:46:53.066Z,8.93
2023-02-09T12:49:32.036Z,8.30
2023-02-09T12:52:02.220Z,8.35
2023-02-09T12:54:45.608Z,8.07
2023-02-09T12:57:15.497Z,9.25
2023-02-09T13:00:09.711Z,8.45
2023-02-09T13:02:36.753Z,8.77
2023-02-09T13:05:04.967Z,10.02
2023-02-09T13:07:50.036Z,8.43
2023-02-09T13:10:37.675Z,8.52
2023-02-09T13:13:10.678Z,9.27
2023-02-09T13:16:01.012Z,7.77
2023-02-09T13:18:44.869Z,9.10
2023-02-09T13:21:57.606Z,9.30
2023-02-09T13:24:41.924Z,8.35
2023-02-09T13:27:23.955Z,9.52
2023-02-09T13:29:56.144Z,9.30
2023-02-09T13:33:03.085Z,8.55
2023-02-09T13:35:37.752Z,9.13
2023-02-09T13:38:16.771Z,9.07
2023-02-09T13:40:49.153Z,8.23
2023-02-09T13:43:31.186Z,8.95
2023-02-09T13:45:59.839Z,9.45
2023-02-09T13:48:30.960Z,8.82
2023-02-09T13:51:01.105Z,9.45
2023-02-09T13:53:30.172Z,9.20
2023-02-09T13:55:59.989Z,8.68
2023-02-09T13:58:35.135Z,8.75
2023-02-09T14:01:13.103Z,9.07
2023-02-09T14:04:07.715Z,9.57
2023-02-09T14:07:08.132Z,8.07
2023-02-09T14:09:46.671Z,9.32
2023-02-09T14:12:45.405Z,8.80
2023-02-09T14:15:32.411Z,8.68
2023-02-09T14:17:59.551Z,8.60
2023-02-09T14:20:26.903Z,9.52
2023-02-09T14:22:56.675Z,9.07
2023-02-09T14:25:31.155Z,9.18
2023-02-09T14:27:58.626Z,9.52
2023-02-09T14:30:29.620Z,9.95
2023-02-09T14:32:58.303Z,8.95
2023-02-09T14:35:28.953Z,9.80
2023-02-09T14:38:00.125Z,9.75
2023-02-09T14:40:27.763Z,9.50
2023-02-09T14:42:59.166Z,8.82
2023-02-09T14:45:31.054Z,10.25
2023-02-09T14:47:58.452Z,9.82
2023-02-09T14:50:25.597Z,8.77
2023-02-09T14:53:04.891Z,8.95
2023-02-09T14:55:35.721Z,8.98
2023-02-09T14:58:11.082Z,10.25
2023-02-09T15:00:38.488Z,9.13
2023-02-09T15:03:05.675Z,8.90
2023-02-09T15:05:33.022Z,9.45
2023-02-09T15:08:08.727Z,9.68
2023-02-09T15:10:38.472Z,9.43
2023-02-09T15:13:05.995Z,9.88
2023-02-09T15:15:37.549Z,10.32
2023-02-09T15:18:04.765Z,10.65
2023-02-09T15:20:32.708Z,8.63
2023-02-09T15:23:00.807Z,9.55
2023-02-09T15:25:28.274Z,9.70
2023-02-09T15:28:00.316Z,9.63
2023-02-09T15:30:34.100Z,10.25
2023-02-09T15:35:29.873Z,9.70
2023-02-09T15:38:00.912Z,9.70
2023-02-09T15:41:09.836Z,9.32
2023-02-09T15:43:55.925Z,8.27
2023-02-09T15:46:44.910Z,8.88
2023-02-09T15:49:12.243Z,9.05
2023-02-09T15:51:40.120Z,9.30
2023-02-09T15:54:21.431Z,11.68
2023-02-09T15:56:48.718Z,11.43
2023-02-09T15:59:24.200Z,11.35
2023-02-09T16:01:51.865Z,12.45
2023-02-09T16:04:19.374Z,10.18
2023-02-09T16:06:50.038Z,10.30
2023-02-09T16:09:27.978Z,9.77
2023-02-09T16:11:55.540Z,9.88
2023-02-09T16:14:24.753Z,11.75
2023-02-09T16:16:52.425Z,13.02
2023-02-09T16:19:21.196Z,11.25
2023-02-09T16:21:53.972Z,11.95
2023-02-09T16:24:50.644Z,12.98
2023-02-09T16:27:23.838Z,12.60
2023-02-09T16:29:51.206Z,11.57
2023-02-09T16:32:21.988Z,12.37
2023-02-09T16:34:50.015Z,12.50
2023-02-09T16:37:29.244Z,12.82
2023-02-09T16:39:58.112Z,12.95
2023-02-09T16:42:25.692Z,14.65
2023-02-09T16:44:53.264Z,16.50
2023-02-09T16:47:27.712Z,16.90
2023-02-09T16:49:58.944Z,18.15
2023-02-09T16:52:26.638Z,18.60
2023-02-09T16:54:57.394Z,19.37
2023-02-09T16:57:26.150Z,20.62
2023-02-09T16:59:53.849Z,20.45
2023-02-09T17:02:32.092Z,21.70
2023-02-09T17:05:01.474Z,21.20
2023-02-09T17:07:31.718Z,21.50
2023-02-09T17:10:01.960Z,24.50
2023-02-09T17:12:29.103Z,25.45
2023-02-09T17:14:56.163Z,25.37
2023-02-09T17:17:23.680Z,25.98
2023-02-09T17:19:51.220Z,24.87
2023-02-09T17:22:18.446Z,23.75
2023-02-09T17:24:47.946Z,24.25
2023-02-09T17:27:15.099Z,25.42
2023-02-09T17:29:42.706Z,23.67
2023-02-09T17:32:14.236Z,24.08
2023-02-09T17:34:42.650Z,22.60
2023-02-09T17:37:13.635Z,22.30
2023-02-09T17:39:41.108Z,21.23
2023-02-09T17:42:17.931Z,20.62
2023-02-09T17:44:46.765Z,20.12
2023-02-09T17:47:19.022Z,19.48
2023-02-09T17:49:46.616Z,19.67
2023-02-09T17:52:18.402Z,19.08
2023-02-09T17:54:46.022Z,19.58
2023-02-09T17:57:14.459Z,18.23
2023-02-09T17:59:41.881Z,18.02
2023-02-09T18:02:17.475Z,15.98
2023-02-09T18:04:45.139Z,16.17
2023-02-09T18:07:13.982Z,16.95
2023-02-09T18:09:41.115Z,16.05
2023-02-09T18:12:19.526Z,13.70
2023-02-09T18:14:46.653Z,13.35
2023-02-09T18:17:13.991Z,15.30
2023-02-09T18:19:41.007Z,13.32
2023-02-09T18:22:12.078Z,12.48
2023-02-09T18:24:39.393Z,13.43
2023-02-09T18:27:08.926Z,13.10
2023-02-09T18:29:35.922Z,12.13
2023-02-09T18:32:03.898Z,11.55
2023-02-09T18:34:31.304Z,13.95
2023-02-09T18:36:58.777Z,12.95
2023-02-09T18:39:26.085Z,11.30
2023-02-09T18:41:56.105Z,11.95
2023-02-09T18:44:31.228Z,10.35
2023-02-09T18:47:02.370Z,11.43
2023-02-09T18:49:29.925Z,12.10
2023-02-09T18:51:58.798Z,9.57
2023-02-09T18:54:28.570Z,10.75
2023-02-09T18:56:55.910Z,9.93
2023-02-09T18:59:28.364Z,9.93
2023-02-09T19:01:56.069Z,11.10
2023-02-09T19:04:24.922Z,11.52
2023-02-09T19:06:52.346Z,10.25
2023-02-09T19:09:19.809Z,10.43
2023-02-09T19:11:46.905Z,10.10
2023-02-09T19:14:32.202Z,9.15
2023-02-09T19:16:59.532Z,9.43
2023-02-09T19:19:26.689Z,9.77
2023-02-09T19:21:54.508Z,10.18
2023-02-09T19:24:21.803Z,9.75
2023-02-09T19:26:48.848Z,9.48
2023-02-09T19:29:16.733Z,9.38
2023-02-09T19:31:44.076Z,10.00
2023-02-09T19:34:11.076Z,9.63
2023-02-09T19:36:38.087Z,9.25
2023-02-09T19:39:05.418Z,7.37
2023-02-09T19:41:32.443Z,9.02
2023-02-09T19:43:59.683Z,9.23
2023-02-09T19:46:27.025Z,10.80
2023-02-09T19:48:54.043Z,9.50
2023-02-09T19:51:21.550Z,9.60
2023-02-09T19:53:49.064Z,10.80
2023-02-09T19:56:17.318Z,11.55
2023-02-09T19:58:45.094Z,11.95
2023-02-09T20:01:13.010Z,11.52
2023-02-09T20:03:40.480Z,15.23
2023-02-09T20:06:09.505Z,14.73
2023-02-09T20:08:37.326Z,13.38
2023-02-09T20:11:09.281Z,11.85
2023-02-09T20:13:36.730Z,12.63
2023-02-09T20:16:08.987Z,10.25
2023-02-09T20:18:36.576Z,10.15
2023-02-09T20:21:08.299Z,9.30
2023-02-09T20:23:36.351Z,9.05
2023-02-09T20:26:16.761Z,9.80
2023-02-09T20:28:43.832Z,9.52
2023-02-09T20:31:11.227Z,10.20
2023-02-09T20:33:39.244Z,8.88
2023-02-09T20:36:08.446Z,9.75
2023-02-09T20:38:37.209Z,9.60
2023-02-09T20:41:12.548Z,10.70
2023-02-09T20:43:59.041Z,7.65
2023-02-09T20:46:43.509Z,8.52
2023-02-09T20:49:16.331Z,9.32
2023-02-09T20:51:44.366Z,8.55
2023-02-09T20:54:12.198Z,8.30
2023-02-09T20:56:39.271Z,7.93
2023-02-09T20:59:08.165Z,9.70
2023-02-09T21:01:38.571Z,8.27
2023-02-09T21:04:07.326Z,8.85
2023-02-09T21:06:37.979Z,7.18
2023-02-09T21:09:06.473Z,8.05
2023-02-09T21:11:33.727Z,8.52
2023-02-09T21:14:04.120Z,6.95
2023-02-09T21:16:32.115Z,8.40
2023-02-09T21:18:59.769Z,8.43
2023-02-09T21:21:27.414Z,8.48
2023-02-09T21:23:55.184Z,7.40
2023-02-09T21:26:24.452Z,8.55
2023-02-09T21:28:56.413Z,7.32
2023-02-09T21:31:26.454Z,7.07
2023-02-09T21:33:53.525Z,7.30
2023-02-09T21:36:20.547Z,8.45
2023-02-09T21:38:47.868Z,8.43
2023-02-09T21:41:38.916Z,7.65
2023-02-09T21:44:07.374Z,7.32
2023-02-09T21:46:34.556Z,7.95
2023-02-09T21:49:01.705Z,8.35
2023-02-09T21:51:29.051Z,7.05
2023-02-09T21:53:56.102Z,6.93
2023-02-09T21:56:23.186Z,8.05
2023-02-09T21:58:50.504Z,8.18
2023-02-09T22:01:17.749Z,7.55
2023-02-09T22:03:49.524Z,8.13
2023-02-09T22:06:16.606Z,7.37
2023-02-09T22:08:43.633Z,7.20
2023-02-09T22:11:10.908Z,7.65
2023-02-09T22:13:37.910Z,8.02
2023-02-09T22:16:09.554Z,7.90
2023-02-09T22:18:37.325Z,6.68
2023-02-09T22:21:08.275Z,7.35
2023-02-09T22:23:35.589Z,6.22
2023-02-09T22:26:04.664Z,6.07
2023-02-09T22:28:33.405Z,6.78
2023-02-09T22:31:12.349Z,6.25
2023-02-09T22:33:39.742Z,6.35
2023-02-09T22:36:08.995Z,6.93
2023-02-09T22:38:36.323Z,6.72
2023-02-09T22:41:21.236Z,7.05
2023-02-09T22:43:48.432Z,6.32
2023-02-09T22:46:15.955Z,7.72
2023-02-09T22:48:43.144Z,7.28
2023-02-09T22:51:16.473Z,6.75
2023-02-09T22:53:44.527Z,7.75
2023-02-09T22:56:12.529Z,6.45
2023-02-09T22:58:39.834Z,7.40
2023-02-09T23:01:07.679Z,7.07
2023-02-09T23:03:35.006Z,7.47
2023-02-09T23:06:03.666Z,7.25
2023-02-09T23:08:31.216Z,7.45
2023-02-09T23:11:06.121Z,6.32
2023-02-09T23:13:34.725Z,7.10
2023-02-09T23:16:12.072Z,6.97
2023-02-09T23:18:44.422Z,8.05
2023-02-09T23:21:11.513Z,7.82
2023-02-09T23:23:38.619Z,8.75
2023-02-09T23:26:06.119Z,8.27
2023-02-09T23:28:33.446Z,8.10
2023-02-09T23:31:05.702Z,7.95
2023-02-09T23:33:34.483Z,8.80
2023-02-09T23:36:09.845Z,9.07
2023-02-09T23:38:37.776Z,8.77
2023-02-09T23:41:12.964Z,8.02
2023-02-09T23:43:40.799Z,8.93
2023-02-09T23:46:11.176Z,8.43
2023-02-09T23:48:38.467Z,7.45
2023-02-09T23:51:08.184Z,7.82
2023-02-09T23:53:35.776Z,8.98
2023-02-09T23:56:03.870Z,7.53
2023-02-09T23:58:32.751Z,8.68
